Time;durP1;ratioP1;P1;durP2;ratioP2;P2;SDS_P1;SDS_P2;PMS_P1;PMS_P2;Temp;Humidity;BMP_temperature;BMP_pressure;BME280_temperature;BME280_humidity;BME280_pressure;Samples;Min_cycle;Max_cycle;Signal;HPM_P1;HPM_P2
2020/12/17 05:00:52;;;;;;;32.40;20.13;;;6.60;99.90;;;;;;5769391;23;20242;-66
2020/12/17 05:03:21;;;;;;;31.77;19.67;;;6.60;99.90;;;;;;4991800;28;20702;-67
2020/12/17 05:05:51;;;;;;;38.53;20.65;;;6.60;99.90;;;;;;4992851;28;20207;-67
2020/12/17 05:08:18;;;;;;;35.65;19.10;;;6.60;99.90;;;;;;4993079;28;20192;-67
2020/12/17 05:10:44;;;;;;;34.80;19.58;;;6.60;99.90;;;;;;4987931;28;20716;-67
2020/12/17 05:13:10;;;;;;;36.58;19.65;;;6.60;99.90;;;;;;4973191;28;20208;-67
2020/12/17 05:15:38;;;;;;;34.72;19.40;;;6.60;99.90;;;;;;4960230;28;20212;-67
2020/12/17 05:18:07;;;;;;;29.95;18.15;;;6.60;99.90;;;;;;4966881;28;20311;-67
2020/12/17 05:20:35;;;;;;;30.13;18.83;;;6.60;99.90;;;;;;4966406;28;20228;-67
2020/12/17 05:23:02;;;;;;;32.15;18.63;;;6.60;99.90;;;;;;4972756;28;20688;-67
2020/12/17 05:25:30;;;;;;;31.95;20.05;;;6.60;99.90;;;;;;4966783;28;20212;-67
2020/12/17 05:27:56;;;;;;;40.10;19.73;;;6.60;99.90;;;;;;4973605;28;20204;-67
2020/12/17 05:30:30;;;;;;;43.13;21.95;;;6.60;99.90;;;;;;4965530;28;20208;-67
2020/12/17 05:32:57;;;;;;;31.98;20.23;;;6.60;99.90;;;;;;4973178;28;20232;-67
2020/12/17 05:35:24;;;;;;;31.42;18.00;;;6.70;99.90;;;;;;4972119;28;20311;-67
2020/12/17 05:37:51;;;;;;;31.73;18.52;;;6.70;99.90;;;;;;4972688;28;20271;-67
2020/12/17 05:40:17;;;;;;;29.95;20.08;;;6.70;99.90;;;;;;4967111;28;20208;-67
2020/12/17 05:42:45;;;;;;;32.05;18.00;;;6.70;99.90;;;;;;4972983;28;20255;-67
2020/12/17 05:45:27;;;;;;;31.08;18.77;;;6.70;99.90;;;;;;4972127;28;20653;-67
2020/12/17 05:48:10;;;;;;;36.25;20.27;;;6.70;99.90;;;;;;4971771;28;20208;-66
2020/12/17 05:50:48;;;;;;;33.60;20.42;;;6.70;99.90;;;;;;4971284;28;20232;-66
2020/12/17 05:53:15;;;;;;;27.23;17.90;;;6.70;99.90;;;;;;4973127;28;20297;-66
2020/12/17 05:55:42;;;;;;;32.20;19.73;;;6.80;99.90;;;;;;4966852;28;20577;-66
2020/12/17 05:58:09;;;;;;;32.10;20.10;;;6.80;99.90;;;;;;4971678;28;20231;-67
2020/12/17 06:00:35;;;;;;;32.65;17.83;;;6.80;99.90;;;;;;4970690;28;20244;-67
2020/12/17 06:03:01;;;;;;;31.08;18.33;;;6.80;99.90;;;;;;4972218;28;20602;-66
2020/12/17 06:05:30;;;;;;;28.25;18.45;;;6.80;99.90;;;;;;4973278;28;20548;-66
2020/12/17 06:07:59;;;;;;;26.58;18.10;;;6.80;99.90;;;;;;4954269;28;20209;-66
2020/12/17 06:10:26;;;;;;;36.10;19.73;;;6.80;99.90;;;;;;4971324;28;20296;-66
2020/12/17 06:12:54;;;;;;;33.08;17.73;;;6.80;99.90;;;;;;4970395;28;20208;-66
2020/12/17 06:15:22;;;;;;;28.65;17.63;;;6.80;99.90;;;;;;4968059;28;20212;-66
2020/12/17 06:17:51;;;;;;;31.20;18.05;;;6.80;99.90;;;;;;4972099;28;20312;-66
2020/12/17 06:20:17;;;;;;;32.67;20.63;;;6.90;99.90;;;;;;4971667;28;20205;-66
2020/12/17 06:22:51;;;;;;;28.77;18.20;;;6.90;99.90;;;;;;4971999;28;20201;-66
2020/12/17 06:25:19;;;;;;;31.40;18.00;;;6.90;99.90;;;;;;4953931;28;20704;-66
2020/12/17 06:27:47;;;;;;;28.30;18.15;;;6.90;99.90;;;;;;4959297;28;20340;-66
2020/12/17 06:30:17;;;;;;;34.78;19.02;;;6.90;99.90;;;;;;4972365;28;20255;-66
2020/12/17 06:32:43;;;;;;;33.53;19.55;;;6.90;99.90;;;;;;4960429;28;20197;-66
2020/12/17 06:35:22;;;;;;;30.92;17.67;;;6.90;99.90;;;;;;4973131;28;20209;-66
2020/12/17 06:37:51;;;;;;;31.42;18.13;;;6.90;99.90;;;;;;4960574;28;20248;-66
2020/12/17 06:40:26;;;;;;;23.45;16.25;;;6.90;99.90;;;;;;4972421;28;20204;-66
2020/12/17 06:42:52;;;;;;;28.77;17.60;;;6.90;99.90;;;;;;4960241;28;20594;-66
2020/12/17 06:45:25;;;;;;;24.95;15.25;;;6.90;99.90;;;;;;4972349;28;20603;-66
2020/12/17 06:47:51;;;;;;;32.90;18.75;;;6.90;99.90;;;;;;4973209;28;20197;-66
2020/12/17 06:50:26;;;;;;;30.75;18.30;;;6.90;99.90;;;;;;4976598;28;20216;-65
2020/12/17 06:53:09;;;;;;;26.75;16.77;;;6.90;99.90;;;;;;4971089;28;20208;-66
2020/12/17 06:55:44;;;;;;;29.48;17.13;;;6.90;99.90;;;;;;4974549;28;20200;-66
2020/12/17 06:58:18;;;;;;;24.50;17.05;;;6.90;99.90;;;;;;4974403;28;20270;-66
2020/12/17 07:00:44;;;;;;;25.58;17.13;;;6.90;99.90;;;;;;4975623;28;20322;-66
2020/12/17 07:03:11;;;;;;;26.42;17.40;;;6.90;99.90;;;;;;4975150;28;20232;-66
2020/12/17 07:05:38;;;;;;;27.52;15.65;;;6.90;99.90;;;;;;4975813;28;20212;-66
2020/12/17 07:08:04;;;;;;;24.52;16.42;;;7.00;99.90;;;;;;4975210;28;20276;-66
2020/12/17 07:10:32;;;;;;;25.98;17.48;;;7.00;99.90;;;;;;4963735;28;20725;-66
2020/12/17 07:12:59;;;;;;;22.75;16.13;;;7.00;99.90;;;;;;4975226;28;20215;-66
2020/12/17 07:15:34;;;;;;;29.98;18.35;;;7.00;99.90;;;;;;4975551;28;20727;-66
2020/12/17 07:18:24;;;;;;;23.60;15.95;;;7.10;99.90;;;;;;4961752;28;20224;-67
2020/12/17 07:20:52;;;;;;;27.42;15.70;;;7.10;99.90;;;;;;4957528;28;20229;-67
2020/12/17 07:23:20;;;;;;;26.80;16.60;;;7.10;99.90;;;;;;4957323;28;20236;-67
2020/12/17 07:25:51;;;;;;;25.13;16.38;;;7.20;99.90;;;;;;4975938;28;20212;-67
2020/12/17 07:28:26;;;;;;;25.42;16.58;;;7.20;99.90;;;;;;4974149;28;20548;-67
2020/12/17 07:30:53;;;;;;;25.95;16.60;;;7.20;99.90;;;;;;4974912;28;20246;-67
2020/12/17 07:33:42;;;;;;;26.95;16.75;;;7.20;99.90;;;;;;4975218;28;20645;-67
2020/12/17 07:36:09;;;;;;;23.02;14.38;;;7.20;99.90;;;;;;4957266;28;20245;-67
2020/12/17 07:38:36;;;;;;;27.77;15.10;;;7.20;99.90;;;;;;4968172;28;20225;-68
2020/12/17 07:41:03;;;;;;;25.10;15.77;;;7.20;99.90;;;;;;4967506;28;20816;-68
2020/12/17 07:43:41;;;;;;;24.60;14.77;;;7.30;99.90;;;;;;4975645;28;20243;-68
2020/12/17 07:46:08;;;;;;;23.17;15.32;;;7.30;99.90;;;;;;4955847;28;20209;-66
2020/12/17 07:48:46;;;;;;;22.63;15.25;;;7.30;99.90;;;;;;4972004;28;20630;-66
2020/12/17 07:51:30;;;;;;;18.05;13.52;;;7.30;99.90;;;;;;4974981;28;20235;-66
2020/12/17 07:53:57;;;;;;;17.88;12.82;;;7.30;99.90;;;;;;4974252;28;20216;-66
2020/12/17 07:56:23;;;;;;;20.45;14.27;;;7.40;99.90;;;;;;4974698;28;20774;-66
2020/12/17 07:58:52;;;;;;;25.48;14.73;;;7.40;99.90;;;;;;4973040;28;20224;-66
2020/12/17 08:01:19;;;;;;;16.58;13.02;;;7.40;99.90;;;;;;4974188;28;20688;-68
2020/12/17 08:03:46;;;;;;;21.38;14.40;;;7.40;99.90;;;;;;4963634;28;20260;-66
2020/12/17 08:06:13;;;;;;;17.73;13.23;;;7.40;99.90;;;;;;4969885;28;20205;-66
2020/12/17 08:08:40;;;;;;;22.27;14.45;;;7.50;99.90;;;;;;4968591;28;20197;-69
2020/12/17 08:11:07;;;;;;;20.45;14.00;;;7.50;99.90;;;;;;4968857;28;20606;-66
2020/12/17 08:13:34;;;;;;;24.98;14.07;;;7.50;99.90;;;;;;4973310;28;20209;-67
2020/12/17 08:16:04;;;;;;;19.92;12.30;;;7.60;99.90;;;;;;4972495;28;20235;-67
2020/12/17 08:18:31;;;;;;;17.65;14.10;;;7.60;99.90;;;;;;4972742;28;20235;-67
2020/12/17 08:21:05;;;;;;;16.38;12.57;;;7.60;99.90;;;;;;4971457;28;20220;-67
2020/12/17 08:23:32;;;;;;;19.70;13.27;;;7.70;99.90;;;;;;4954932;29;20205;-67
2020/12/17 08:26:01;;;;;;;20.30;13.43;;;7.70;99.90;;;;;;4966617;28;20212;-67
2020/12/17 08:28:39;;;;;;;18.63;12.98;;;7.70;99.90;;;;;;4973853;28;20692;-67
2020/12/17 08:31:08;;;;;;;17.65;13.55;;;7.70;99.90;;;;;;4972190;28;20256;-67
2020/12/17 08:33:36;;;;;;;154.13;62.60;;;7.70;99.90;;;;;;4973901;28;20208;-67
2020/12/17 08:36:07;;;;;;;41.58;28.65;;;7.70;99.90;;;;;;4973587;28;20201;-67
2020/12/17 08:38:34;;;;;;;26.40;16.15;;;7.70;99.90;;;;;;4972939;28;20704;-67
2020/12/17 08:41:02;;;;;;;21.88;14.45;;;7.80;99.90;;;;;;4971459;28;20217;-67
2020/12/17 08:43:34;;;;;;;25.20;16.45;;;7.90;99.90;;;;;;4958171;28;20201;-67
2020/12/17 08:46:01;;;;;;;27.60;18.10;;;7.90;99.90;;;;;;4963484;28;20208;-67
2020/12/17 08:48:31;;;;;;;25.23;17.92;;;8.00;99.90;;;;;;4971158;28;20553;-68
2020/12/17 08:50:58;;;;;;;31.35;19.75;;;8.00;99.90;;;;;;4973118;28;20228;-67
2020/12/17 08:53:27;;;;;;;23.67;15.02;;;8.10;99.90;;;;;;4968112;28;20212;-68
2020/12/17 08:56:10;;;;;;;16.60;13.90;;;8.20;99.90;;;;;;4963241;28;20231;-67
2020/12/17 08:58:43;;;;;;;16.98;13.05;;;8.20;99.90;;;;;;4966900;28;20711;-67
2020/12/17 09:01:17;;;;;;;17.48;12.98;;;8.30;99.90;;;;;;4958066;28;20661;-67
2020/12/17 09:03:46;;;;;;;16.73;12.10;;;8.30;99.90;;;;;;4972610;28;20343;-68
2020/12/17 09:06:13;;;;;;;18.60;12.40;;;8.40;99.90;;;;;;4968860;28;20236;-67
2020/12/17 09:08:40;;;;;;;14.20;11.65;;;8.40;99.90;;;;;;4961167;28;20208;-67
2020/12/17 09:11:06;;;;;;;17.00;11.63;;;8.40;99.90;;;;;;4968135;28;20224;-67
2020/12/17 09:13:32;;;;;;;15.85;12.32;;;8.50;99.90;;;;;;4964396;28;20600;-67
2020/12/17 09:16:00;;;;;;;14.48;11.35;;;8.60;99.90;;;;;;4970835;28;20211;-67
2020/12/17 09:18:28;;;;;;;18.48;12.20;;;8.60;99.90;;;;;;4972498;28;20232;-67
2020/12/17 09:21:09;;;;;;;14.32;12.82;;;8.60;99.90;;;;;;4971002;28;20228;-67
2020/12/17 09:23:35;;;;;;;18.13;13.48;;;8.70;99.90;;;;;;4971939;28;20219;-67
2020/12/17 09:26:14;;;;;;;16.55;13.98;;;8.70;99.90;;;;;;4965185;28;20212;-67
2020/12/17 09:29:05;;;;;;;13.20;10.60;;;8.70;99.90;;;;;;4971784;28;20235;-67
2020/12/17 09:31:33;;;;;;;11.40;9.80;;;8.80;99.90;;;;;;4960735;28;20228;-67
2020/12/17 09:34:10;;;;;;;14.00;11.45;;;8.80;99.90;;;;;;4971827;28;20201;-67
2020/12/17 09:36:39;;;;;;;12.27;10.70;;;8.90;99.90;;;;;;4973392;28;20633;-68
2020/12/17 09:39:09;;;;;;;14.18;12.68;;;8.90;99.90;;;;;;4972273;28;20216;-68
2020/12/17 09:41:35;;;;;;;13.18;11.43;;;8.90;99.90;;;;;;4971904;28;20236;-68
2020/12/17 09:44:02;;;;;;;12.23;10.13;;;9.00;99.90;;;;;;4971094;28;20212;-68
2020/12/17 09:46:41;;;;;;;13.15;10.40;;;9.00;99.90;;;;;;4968999;28;20227;-67
2020/12/17 09:49:09;;;;;;;11.70;9.88;;;9.10;99.90;;;;;;4969799;28;20197;-68
2020/12/17 09:51:35;;;;;;;12.68;10.25;;;9.10;99.90;;;;;;4963353;28;20227;-68
2020/12/17 09:54:02;;;;;;;13.00;9.80;;;9.10;99.90;;;;;;4972883;28;20671;-68
2020/12/17 09:56:29;;;;;;;13.10;9.70;;;9.10;99.90;;;;;;4969752;28;20211;-68
2020/12/17 09:58:55;;;;;;;11.25;10.10;;;9.10;99.90;;;;;;4953926;29;20316;-68
2020/12/17 10:01:22;;;;;;;16.50;11.50;;;9.10;99.90;;;;;;4965513;28;20239;-67
2020/12/17 10:03:48;;;;;;;15.40;12.30;;;9.20;99.90;;;;;;4972157;28;20200;-67
2020/12/17 10:06:14;;;;;;;14.55;12.98;;;9.20;99.90;;;;;;4972830;28;20201;-68
2020/12/17 10:08:40;;;;;;;15.98;13.00;;;9.20;99.90;;;;;;4972218;28;20216;-68
2020/12/17 10:11:08;;;;;;;14.63;11.85;;;9.30;99.90;;;;;;4972216;28;20225;-68
2020/12/17 10:13:35;;;;;;;13.43;10.48;;;9.30;99.90;;;;;;4972120;28;20541;-66
2020/12/17 10:16:02;;;;;;;13.65;12.15;;;9.30;99.90;;;;;;4972266;28;20201;-66
2020/12/17 10:18:28;;;;;;;14.77;12.13;;;9.40;99.90;;;;;;4972734;28;20583;-67
2020/12/17 10:20:54;;;;;;;13.30;11.20;;;9.40;99.90;;;;;;4972008;28;20673;-66
2020/12/17 10:23:20;;;;;;;14.80;12.35;;;9.40;99.90;;;;;;4975916;28;20578;-66
2020/12/17 10:25:46;;;;;;;15.05;12.35;;;9.50;99.90;;;;;;4976722;28;20653;-67
2020/12/17 10:28:13;;;;;;;11.77;10.57;;;9.50;99.90;;;;;;4977779;28;20212;-66
2020/12/17 10:30:39;;;;;;;12.13;10.77;;;9.50;99.90;;;;;;4977532;28;20224;-67
2020/12/17 10:33:06;;;;;;;16.92;11.27;;;9.50;99.90;;;;;;4963966;28;20248;-67
2020/12/17 10:35:32;;;;;;;14.27;10.65;;;9.60;99.90;;;;;;4979683;28;20354;-67
2020/12/17 10:37:58;;;;;;;13.80;10.95;;;9.60;99.90;;;;;;4982026;28;20223;-67
2020/12/17 10:40:24;;;;;;;12.32;10.45;;;9.60;99.90;;;;;;4981444;28;20216;-67
2020/12/17 10:42:50;;;;;;;13.50;10.75;;;9.60;99.90;;;;;;4975324;28;20274;-67
2020/12/17 10:45:17;;;;;;;16.02;12.05;;;9.50;99.90;;;;;;4976296;28;20288;-66
2020/12/17 10:47:43;;;;;;;11.27;9.88;;;9.50;99.90;;;;;;4976803;28;20207;-67
2020/12/17 10:50:10;;;;;;;15.20;10.15;;;9.50;99.90;;;;;;4976056;28;20201;-68
2020/12/17 10:52:36;;;;;;;13.05;10.45;;;9.50;99.90;;;;;;4974739;28;20292;-68
2020/12/17 10:55:02;;;;;;;14.18;10.60;;;9.60;99.90;;;;;;4976758;28;20211;-67
2020/12/17 10:57:28;;;;;;;14.82;10.20;;;9.60;99.90;;;;;;4973698;28;20290;-67
2020/12/17 10:59:55;;;;;;;14.05;10.60;;;9.60;99.90;;;;;;4975115;28;20312;-68
2020/12/17 11:02:22;;;;;;;14.38;11.82;;;9.60;99.90;;;;;;4976775;28;20239;-68
2020/12/17 11:04:48;;;;;;;11.35;10.18;;;9.60;99.90;;;;;;4972345;28;20219;-68
2020/12/17 11:07:14;;;;;;;13.32;11.52;;;9.50;99.90;;;;;;4970504;28;20205;-68
2020/12/17 11:09:40;;;;;;;15.90;11.25;;;9.50;99.90;;;;;;4980320;28;20193;-68
2020/12/17 11:12:08;;;;;;;12.20;10.20;;;9.50;99.90;;;;;;4980461;28;20633;-68
2020/12/17 11:14:34;;;;;;;16.17;11.60;;;9.40;99.90;;;;;;4980695;28;20688;-67
2020/12/17 11:17:03;;;;;;;14.07;11.48;;;9.40;99.90;;;;;;4981110;28;20219;-69
2020/12/17 11:19:30;;;;;;;13.32;11.75;;;9.40;99.90;;;;;;4980554;28;20225;-68
2020/12/17 11:22:00;;;;;;;14.93;12.50;;;9.30;99.90;;;;;;4980013;28;20236;-67
2020/12/17 11:24:26;;;;;;;17.15;12.18;;;9.30;99.90;;;;;;4978532;28;20636;-67
2020/12/17 11:26:52;;;;;;;17.63;13.05;;;9.30;99.90;;;;;;4966690;28;20205;-68
2020/12/17 11:29:18;;;;;;;15.57;12.20;;;9.30;99.90;;;;;;4975649;28;20287;-67
2020/12/17 11:31:46;;;;;;;15.75;12.43;;;9.30;99.90;;;;;;4962166;28;20304;-67
2020/12/17 11:34:12;;;;;;;16.85;12.65;;;9.30;99.90;;;;;;4970156;28;20212;-67
2020/12/17 11:36:39;;;;;;;19.23;11.95;;;9.30;99.90;;;;;;4974824;28;20263;-67
2020/12/17 11:39:05;;;;;;;15.73;11.98;;;9.30;99.90;;;;;;4974715;28;20522;-67
2020/12/17 11:41:31;;;;;;;13.90;12.13;;;9.30;99.90;;;;;;4974010;28;20224;-68
2020/12/17 11:43:58;;;;;;;15.25;12.50;;;9.30;99.90;;;;;;4974768;28;20205;-67
2020/12/17 11:46:24;;;;;;;13.82;11.05;;;9.30;99.90;;;;;;4966725;28;20208;-67
2020/12/17 11:48:50;;;;;;;14.68;12.35;;;9.30;99.90;;;;;;4965256;28;20308;-67
2020/12/17 11:51:17;;;;;;;19.23;14.38;;;9.30;99.90;;;;;;4967221;28;20233;-68
2020/12/17 11:53:44;;;;;;;17.63;14.18;;;9.30;99.90;;;;;;4974487;28;20200;-68
2020/12/17 11:56:12;;;;;;;17.27;13.48;;;9.20;99.90;;;;;;4973679;28;20588;-67
2020/12/17 11:58:39;;;;;;;17.80;13.23;;;9.20;99.90;;;;;;4973939;28;20665;-67
2020/12/17 12:01:05;;;;;;;15.65;13.45;;;9.30;99.90;;;;;;4954885;28;20257;-67
2020/12/17 12:03:31;;;;;;;18.08;13.30;;;9.20;99.90;;;;;;4973765;28;20545;-67
2020/12/17 12:05:57;;;;;;;18.95;14.15;;;9.20;99.90;;;;;;4973870;28;20562;-68
2020/12/17 12:08:23;;;;;;;17.70;12.90;;;9.20;99.90;;;;;;4973788;28;20212;-67
2020/12/17 12:10:51;;;;;;;18.98;13.57;;;9.20;99.90;;;;;;4963701;28;20319;-68
2020/12/17 12:13:17;;;;;;;16.02;13.35;;;9.30;99.90;;;;;;4973749;28;20220;-68
2020/12/17 12:15:43;;;;;;;24.52;15.65;;;9.20;99.90;;;;;;4973340;28;20200;-68
2020/12/17 12:18:09;;;;;;;16.25;13.50;;;9.20;99.90;;;;;;4974623;28;20201;-68
2020/12/17 12:20:35;;;;;;;20.38;14.18;;;9.20;99.90;;;;;;4970719;28;20609;-68
2020/12/17 12:23:02;;;;;;;20.13;14.70;;;9.20;99.90;;;;;;4967732;28;20209;-68
2020/12/17 12:25:28;;;;;;;17.00;13.10;;;9.20;99.90;;;;;;4969518;28;20213;-67
2020/12/17 12:27:55;;;;;;;18.13;12.93;;;9.30;99.90;;;;;;4973683;28;20212;-68
2020/12/17 12:30:21;;;;;;;17.73;12.20;;;9.30;99.90;;;;;;4961757;28;20280;-68
2020/12/17 12:32:47;;;;;;;17.83;14.35;;;9.30;99.90;;;;;;4954348;28;20229;-68
2020/12/17 12:35:13;;;;;;;20.05;14.82;;;9.30;99.90;;;;;;4962428;28;20562;-68
2020/12/17 12:37:39;;;;;;;18.70;15.20;;;9.40;99.90;;;;;;4957449;28;20204;-68
2020/12/17 12:40:05;;;;;;;19.75;13.73;;;9.40;99.90;;;;;;4963850;28;20225;-68
2020/12/17 12:42:32;;;;;;;16.13;14.18;;;9.40;99.90;;;;;;4959132;28;20212;-68
2020/12/17 12:44:59;;;;;;;19.58;14.00;;;9.50;99.90;;;;;;4973055;28;20791;-68
2020/12/17 12:47:26;;;;;;;17.85;14.23;;;9.40;99.90;;;;;;4970192;28;20276;-68
2020/12/17 12:49:53;;;;;;;16.85;13.32;;;9.50;99.90;;;;;;4969636;28;20291;-68
2020/12/17 12:52:19;;;;;;;14.38;12.88;;;9.50;99.90;;;;;;4971077;28;20298;-68
2020/12/17 12:54:45;;;;;;;16.73;11.85;;;9.50;99.90;;;;;;4969999;28;20216;-68
2020/12/17 12:57:11;;;;;;;15.65;12.63;;;9.50;99.90;;;;;;4973033;28;20665;-68
2020/12/17 12:59:37;;;;;;;16.77;12.98;;;9.60;99.90;;;;;;4972695;28;20228;-68
2020/12/17 13:02:05;;;;;;;14.38;12.65;;;9.50;99.90;;;;;;4959725;28;20244;-68
2020/12/17 13:04:31;;;;;;;15.45;12.77;;;9.60;99.90;;;;;;4970068;28;20589;-67
2020/12/17 13:06:57;;;;;;;15.60;12.63;;;9.60;99.90;;;;;;4954806;28;20213;-67
2020/12/17 13:09:24;;;;;;;13.48;11.68;;;9.60;99.90;;;;;;4972803;28;20207;-67
2020/12/17 13:11:53;;;;;;;14.90;13.00;;;9.60;99.90;;;;;;4972245;28;20311;-67
2020/12/17 13:14:19;;;;;;;14.55;12.15;;;9.60;99.90;;;;;;4968850;28;20200;-67
2020/12/17 13:16:46;;;;;;;13.15;10.88;;;9.60;99.90;;;;;;4968900;28;20212;-67
2020/12/17 13:19:15;;;;;;;11.57;9.90;;;9.60;99.90;;;;;;4965070;28;20557;-67
2020/12/17 13:21:41;;;;;;;16.83;10.80;;;9.50;99.90;;;;;;4953701;28;20221;-67
2020/12/17 13:24:07;;;;;;;12.32;10.73;;;9.60;99.90;;;;;;4970772;28;20211;-67
2020/12/17 13:26:34;;;;;;;12.63;11.25;;;9.60;99.90;;;;;;4971293;28;20205;-67
2020/12/17 13:29:00;;;;;;;13.15;11.23;;;9.60;99.90;;;;;;4962043;28;20272;-67
2020/12/17 13:31:26;;;;;;;12.02;10.70;;;9.60;99.90;;;;;;4970506;28;20232;-67
2020/12/17 13:33:55;;;;;;;12.82;11.52;;;9.60;99.90;;;;;;4972898;28;20212;-67
2020/12/17 13:36:22;;;;;;;16.70;11.90;;;9.70;99.90;;;;;;4971410;28;20243;-67
2020/12/17 13:38:48;;;;;;;13.90;11.90;;;9.70;99.90;;;;;;4971532;28;20224;-68
2020/12/17 13:41:15;;;;;;;12.68;11.43;;;9.70;99.90;;;;;;4972684;28;20558;-68
2020/12/17 13:43:41;;;;;;;14.50;11.25;;;9.70;99.90;;;;;;4971114;28;20262;-67
2020/12/17 13:46:07;;;;;;;10.95;9.85;;;9.70;99.90;;;;;;4971500;28;20205;-66
2020/12/17 13:48:33;;;;;;;10.93;9.00;;;9.80;99.90;;;;;;4970778;28;20201;-66
2020/12/17 13:50:59;;;;;;;10.00;8.63;;;9.80;99.90;;;;;;4966292;28;20236;-67
2020/12/17 13:53:26;;;;;;;9.20;8.27;;;9.80;99.90;;;;;;4971455;28;20230;-67
2020/12/17 13:55:54;;;;;;;7.88;7.25;;;9.70;99.90;;;;;;4959777;28;20215;-66
2020/12/17 13:58:20;;;;;;;7.43;6.70;;;9.70;99.90;;;;;;4976528;28;20208;-66
2020/12/17 14:00:47;;;;;;;7.32;6.78;;;9.70;99.90;;;;;;4970713;28;20233;-66
2020/12/17 14:03:13;;;;;;;7.55;6.95;;;9.70;99.90;;;;;;4977002;28;20243;-66
2020/12/17 14:05:39;;;;;;;7.47;6.97;;;9.70;99.90;;;;;;4983352;28;20204;-66
2020/12/17 14:08:05;;;;;;;7.32;6.72;;;9.70;99.90;;;;;;4977942;28;20204;-66
2020/12/17 14:10:32;;;;;;;7.70;7.10;;;9.70;99.90;;;;;;4975335;28;20225;-66
2020/12/17 14:12:58;;;;;;;7.22;6.63;;;9.70;99.90;;;;;;4981011;28;20215;-67
2020/12/17 14:15:25;;;;;;;8.20;7.50;;;9.70;99.90;;;;;;4981634;28;20592;-66
2020/12/17 14:17:51;;;;;;;6.95;6.45;;;9.70;99.90;;;;;;4981959;28;20235;-67
2020/12/17 14:20:17;;;;;;;8.05;7.30;;;9.70;99.90;;;;;;4980841;28;20216;-66
2020/12/17 14:22:45;;;;;;;9.35;7.97;;;9.70;99.90;;;;;;4982262;28;20271;-66
2020/12/17 14:25:11;;;;;;;8.00;7.30;;;9.70;99.90;;;;;;4983626;28;20208;-66
2020/12/17 14:27:38;;;;;;;8.65;7.75;;;9.70;99.90;;;;;;4983566;28;20212;-67
2020/12/17 14:30:04;;;;;;;9.23;8.30;;;9.70;99.90;;;;;;4976847;28;20739;-67
2020/12/17 14:32:30;;;;;;;10.20;9.23;;;9.60;99.90;;;;;;4976007;28;20225;-66
2020/12/17 14:34:57;;;;;;;10.52;9.65;;;9.60;99.90;;;;;;4975791;28;20216;-67
2020/12/17 14:37:23;;;;;;;11.68;10.48;;;9.60;99.90;;;;;;4957036;29;20275;-67
2020/12/17 14:39:49;;;;;;;11.75;10.55;;;9.60;99.90;;;;;;4957442;28;20224;-66
2020/12/17 14:42:16;;;;;;;11.38;10.23;;;9.60;99.90;;;;;;4956205;29;20237;-66
2020/12/17 14:44:43;;;;;;;10.70;9.80;;;9.60;99.90;;;;;;4965958;28;20228;-66
2020/12/17 14:47:10;;;;;;;11.82;10.10;;;9.60;99.90;;;;;;4976127;28;20345;-66
2020/12/17 14:49:37;;;;;;;10.48;9.45;;;9.60;99.90;;;;;;4965362;28;20349;-67
2020/12/17 14:52:03;;;;;;;10.05;9.25;;;9.60;99.90;;;;;;4968543;28;20701;-67
2020/12/17 14:54:29;;;;;;;10.27;9.27;;;9.60;99.90;;;;;;4976185;28;20220;-66
2020/12/17 14:56:55;;;;;;;10.85;9.75;;;9.60;99.90;;;;;;4973580;28;20216;-67
2020/12/17 14:59:21;;;;;;;11.65;10.55;;;9.60;99.90;;;;;;4974972;28;20217;-67
2020/12/17 15:01:53;;;;;;;11.15;10.15;;;9.60;99.90;;;;;;4974183;28;20392;-67
2020/12/17 15:04:19;;;;;;;10.95;9.93;;;9.60;99.90;;;;;;4956273;29;20264;-67
2020/12/17 15:06:45;;;;;;;11.02;9.98;;;9.50;99.90;;;;;;4965641;28;20208;-66
2020/12/17 15:09:11;;;;;;;11.05;10.07;;;9.50;99.90;;;;;;4957581;28;20300;-67
2020/12/17 15:11:37;;;;;;;10.27;9.38;;;9.60;99.90;;;;;;4955464;29;20283;-67
2020/12/17 15:14:03;;;;;;;10.65;9.65;;;9.50;99.90;;;;;;4973143;28;20204;-67
2020/12/17 15:16:30;;;;;;;10.43;9.40;;;9.60;99.90;;;;;;4974307;28;20232;-67
2020/12/17 15:18:57;;;;;;;10.30;9.40;;;9.50;99.90;;;;;;4974453;28;20231;-67
2020/12/17 15:21:24;;;;;;;9.50;8.60;;;9.60;99.90;;;;;;4975661;28;20621;-67
2020/12/17 15:23:50;;;;;;;10.07;9.27;;;9.60;99.90;;;;;;4973366;28;20319;-67
2020/12/17 15:26:16;;;;;;;9.10;8.40;;;9.60;99.90;;;;;;4974193;28;20270;-67
2020/12/17 15:28:43;;;;;;;10.60;9.20;;;9.60;99.90;;;;;;4972385;28;20209;-67
2020/12/17 15:31:09;;;;;;;9.65;8.80;;;9.60;99.90;;;;;;4974656;28;20719;-67
2020/12/17 15:33:35;;;;;;;8.95;7.30;;;9.60;99.90;;;;;;4974187;28;20205;-67
2020/12/17 15:36:03;;;;;;;9.60;8.50;;;9.60;99.90;;;;;;4974834;28;20605;-67
2020/12/17 15:38:29;;;;;;;9.77;7.65;;;9.60;99.90;;;;;;4975052;28;20506;-67
2020/12/17 15:40:56;;;;;;;9.82;9.02;;;9.60;99.90;;;;;;4977311;28;20231;-67
2020/12/17 15:43:22;;;;;;;8.63;7.72;;;9.60;99.90;;;;;;4972941;28;20624;-67
2020/12/17 15:45:48;;;;;;;9.00;8.20;;;9.60;99.90;;;;;;4970031;28;20574;-67
2020/12/17 15:48:15;;;;;;;9.00;8.30;;;9.60;99.90;;;;;;4973752;28;20213;-67
2020/12/17 15:50:41;;;;;;;8.55;7.75;;;9.60;99.90;;;;;;4974178;28;20227;-67
2020/12/17 15:53:08;;;;;;;9.60;8.70;;;9.50;99.90;;;;;;4974176;28;20212;-67
2020/12/17 15:55:34;;;;;;;8.68;7.93;;;9.60;99.90;;;;;;4974100;28;20263;-67
2020/12/17 15:58:00;;;;;;;9.25;8.38;;;9.60;99.90;;;;;;4973284;28;20299;-67
2020/12/17 16:00:26;;;;;;;9.52;8.68;;;9.60;99.90;;;;;;4973103;28;20240;-67
2020/12/17 16:02:53;;;;;;;10.18;9.25;;;9.60;99.90;;;;;;4970660;28;20208;-67
2020/12/17 16:05:19;;;;;;;9.10;8.30;;;9.60;99.90;;;;;;4965712;28;20211;-67
2020/12/17 17:04:16;;;;;;;9.05;8.18;;;9.50;99.90;;;;;;5102320;27;20582;-66
2020/12/17 17:06:42;;;;;;;8.25;7.50;;;9.40;99.90;;;;;;5105389;28;20204;-66
2020/12/17 17:09:09;;;;;;;7.85;7.20;;;9.50;99.90;;;;;;5107251;27;20257;-66
2020/12/17 20:25:20;;;;;;;12.75;10.57;;;8.60;99.90;;;;;;5108994;27;20571;-67
2020/12/17 20:27:47;;;;;;;9.43;8.43;;;8.60;99.90;;;;;;5107647;28;20632;-67
2020/12/17 20:30:14;;;;;;;12.32;9.88;;;8.50;99.90;;;;;;5108372;28;20196;-66
2020/12/17 20:32:40;;;;;;;14.05;11.63;;;8.60;99.90;;;;;;5087990;28;20205;-67
2020/12/17 20:35:06;;;;;;;15.20;11.52;;;8.50;99.90;;;;;;5085260;28;20207;-67
2020/12/17 20:37:32;;;;;;;13.68;11.43;;;8.50;99.90;;;;;;5088483;28;20204;-66
2020/12/17 20:39:58;;;;;;;14.10;10.20;;;8.50;99.90;;;;;;5092029;28;20196;-66
2020/12/17 20:42:27;;;;;;;13.43;11.20;;;8.50;99.90;;;;;;5106820;28;20225;-67
2020/12/17 20:44:53;;;;;;;14.50;11.32;;;8.50;99.90;;;;;;5092824;28;20254;-67
2020/12/17 20:47:20;;;;;;;15.90;12.45;;;8.50;99.90;;;;;;5090010;28;20216;-67
2020/12/17 20:49:47;;;;;;;15.85;12.80;;;8.40;99.90;;;;;;5090982;28;20207;-68
2020/12/17 20:52:13;;;;;;;11.32;10.20;;;8.30;99.90;;;;;;5093530;28;20224;-66
2020/12/17 20:54:39;;;;;;;14.43;9.93;;;8.30;99.90;;;;;;5096982;28;20193;-68
2020/12/17 20:57:06;;;;;;;13.38;9.55;;;8.30;99.90;;;;;;5093951;28;20205;-67
2020/12/17 20:59:34;;;;;;;13.63;10.23;;;8.30;99.90;;;;;;5093966;28;20276;-67
2020/12/17 21:02:01;;;;;;;11.25;9.32;;;8.20;99.90;;;;;;5087707;28;20225;-66
2020/12/17 21:04:27;;;;;;;14.20;10.70;;;8.20;99.90;;;;;;5086208;28;20687;-66
2020/12/17 21:06:53;;;;;;;12.90;10.10;;;8.20;99.90;;;;;;5088347;28;20209;-66
2020/12/17 21:09:20;;;;;;;12.30;9.73;;;8.10;99.90;;;;;;5081674;28;20204;-66
2020/12/17 21:11:46;;;;;;;10.60;9.10;;;8.10;99.90;;;;;;5087546;28;20236;-67
2020/12/17 21:14:12;;;;;;;16.20;10.65;;;8.10;99.90;;;;;;5082772;28;20283;-69
2020/12/17 21:16:39;;;;;;;13.05;10.88;;;8.00;99.90;;;;;;5087335;28;20941;-67
2020/12/17 21:19:08;;;;;;;12.48;10.27;;;8.00;99.90;;;;;;5086902;28;20608;-67
2020/12/17 21:21:34;;;;;;;13.98;11.10;;;8.00;99.90;;;;;;5068135;28;20221;-67
2020/12/17 21:24:01;;;;;;;18.08;13.82;;;8.00;99.90;;;;;;5068155;28;20225;-66
2020/12/17 21:26:28;;;;;;;14.95;12.20;;;7.90;99.90;;;;;;5087190;28;20205;-66
2020/12/17 21:28:55;;;;;;;15.75;10.50;;;7.90;99.90;;;;;;5087032;28;20197;-67
2020/12/17 21:31:21;;;;;;;15.82;11.38;;;7.90;99.90;;;;;;5068692;28;20571;-67
2020/12/17 21:33:49;;;;;;;18.27;10.82;;;7.80;99.90;;;;;;5071784;28;20196;-67
2020/12/17 21:36:16;;;;;;;15.95;11.63;;;7.90;99.90;;;;;;5076195;28;20587;-67
2020/12/17 21:38:42;;;;;;;13.20;10.70;;;7.80;99.90;;;;;;5073647;28;20210;-67
2020/12/17 21:41:08;;;;;;;14.93;10.52;;;7.80;99.90;;;;;;5074042;28;20248;-65
2020/12/17 21:43:34;;;;;;;15.18;11.90;;;7.80;99.90;;;;;;5072549;28;20225;-66
2020/12/17 21:46:00;;;;;;;16.42;10.40;;;7.80;99.90;;;;;;5073788;28;20201;-67
2020/12/17 21:48:27;;;;;;;12.40;10.30;;;7.80;99.90;;;;;;5073419;28;20201;-66
2020/12/17 21:50:54;;;;;;;12.40;11.02;;;7.80;99.90;;;;;;5061668;28;20283;-65
2020/12/17 21:53:20;;;;;;;15.30;11.45;;;7.70;99.90;;;;;;5054480;28;20654;-66